createdAt,value
2022-10-05T00:00:26.996Z,22.50
2022-10-05T00:02:54.385Z,23.30
2022-10-05T00:05:20.992Z,24.52
2022-10-05T00:07:47.574Z,24.13
2022-10-05T00:10:15.807Z,23.25
2022-10-05T00:12:44.072Z,22.92
2022-10-05T00:15:11.741Z,23.80
2022-10-05T00:17:38.442Z,23.80
2022-10-05T00:20:16.420Z,23.23
2022-10-05T00:22:42.988Z,22.27
2022-10-05T00:25:14.852Z,23.50
2022-10-05T00:27:41.328Z,22.90
2022-10-05T00:30:13.165Z,21.00
2022-10-05T00:32:39.755Z,22.95
2022-10-05T00:35:06.468Z,21.27
2022-10-05T00:37:32.928Z,20.30
2022-10-05T00:39:59.366Z,21.08
2022-10-05T00:42:25.904Z,18.98
2022-10-05T00:44:57.023Z,20.52
2022-10-05T00:47:35.827Z,19.73
2022-10-05T00:50:29.924Z,19.67
2022-10-05T00:53:19.984Z,21.55
2022-10-05T00:55:57.525Z,20.90
2022-10-05T00:58:35.989Z,20.13
2022-10-05T14:38:17.828Z,7.50
2022-10-05T14:40:44.287Z,8.00
2022-10-05T14:43:13.932Z,6.85
2022-10-05T14:45:56.947Z,5.78
2022-10-05T14:48:24.062Z,6.90
2022-10-05T14:50:55.230Z,6.55
2022-10-05T14:53:24.959Z,25.98
2022-10-05T14:56:11.142Z,8.40
2022-10-05T14:58:44.702Z,9.55
2022-10-05T15:01:33.968Z,9.57
2022-10-05T15:04:00.485Z,6.07
2022-10-05T15:06:34.843Z,8.63
2022-10-05T15:09:20.157Z,8.25
2022-10-05T15:11:52.353Z,12.00
2022-10-05T15:14:26.314Z,12.85
2022-10-05T15:16:53.880Z,9.88
2022-10-05T15:19:27.384Z,14.30
2022-10-05T15:24:25.828Z,9.52
2022-10-05T15:27:00.495Z,9.10
2022-10-05T15:29:52.332Z,10.05
2022-10-05T15:32:24.561Z,9.00
2022-10-05T15:37:51.664Z,11.40
2022-10-05T15:40:21.786Z,9.75
2022-10-05T15:42:52.702Z,8.02
2022-10-05T15:45:23.488Z,12.20
2022-10-05T15:47:56.441Z,10.70
2022-10-05T15:50:25.820Z,13.68
2022-10-05T15:53:11.990Z,8.98
2022-10-05T15:55:49.327Z,9.80
2022-10-05T15:58:39.925Z,7.70
2022-10-05T16:01:10.078Z,11.27
2022-10-05T16:03:37.283Z,9.90
2022-10-05T16:06:27.777Z,10.57
2022-10-05T16:09:12.877Z,9.07
2022-10-05T16:11:48.373Z,11.27
2022-10-05T16:14:33.474Z,10.75
2022-10-05T16:16:59.992Z,9.65
2022-10-05T16:19:46.134Z,13.63
2022-10-05T16:22:24.185Z,16.25
2022-10-05T16:25:02.674Z,32.20
2022-10-05T16:27:43.550Z,14.48
2022-10-05T16:30:12.029Z,11.07
2022-10-05T16:32:50.786Z,12.02
2022-10-05T16:35:24.890Z,10.85
2022-10-05T16:37:54.217Z,10.52
2022-10-05T16:40:29.947Z,10.27
2022-10-05T16:43:05.446Z,13.27
2022-10-05T16:45:46.087Z,11.77
2022-10-05T16:48:17.568Z,10.90
2022-10-05T16:50:56.938Z,9.07
2022-10-05T16:53:49.687Z,9.93
2022-10-05T16:56:17.984Z,10.10
2022-10-05T16:59:04.205Z,10.80
2022-10-05T17:01:42.226Z,10.52
2022-10-05T17:04:16.494Z,11.27
2022-10-05T17:06:57.961Z,8.90
2022-10-05T17:09:37.033Z,10.38
2022-10-05T17:12:18.934Z,9.75
2022-10-05T17:14:45.454Z,10.07
2022-10-05T17:17:15.803Z,8.80
2022-10-05T17:20:08.736Z,9.05
2022-10-05T17:22:47.626Z,8.63
2022-10-05T17:25:24.333Z,10.27
2022-10-05T17:27:52.788Z,10.55
2022-10-05T17:30:19.237Z,8.88
2022-10-05T17:32:58.572Z,10.10
2022-10-05T17:35:43.744Z,10.30
2022-10-05T17:38:14.462Z,9.65
2022-10-05T17:41:01.613Z,8.45
2022-10-05T17:43:30.701Z,9.93
2022-10-05T17:45:57.323Z,10.63
2022-10-05T17:48:41.652Z,10.75
2022-10-05T17:51:37.193Z,9.65
2022-10-05T17:54:39.439Z,9.68
2022-10-05T17:57:05.876Z,9.43
2022-10-05T17:59:45.776Z,8.48
2022-10-05T18:02:21.855Z,8.20
2022-10-05T18:05:16.122Z,8.73
2022-10-05T18:07:48.134Z,8.82
2022-10-05T18:10:28.811Z,9.55
2022-10-05T18:13:01.328Z,12.48
2022-10-05T18:15:27.737Z,10.13
2022-10-05T18:17:57.411Z,10.23
2022-10-05T18:20:23.899Z,10.77
2022-10-05T18:23:00.983Z,11.52
2022-10-05T18:25:48.788Z,12.02
2022-10-05T18:28:25.750Z,12.90
2022-10-05T18:31:11.071Z,14.65
2022-10-05T18:33:47.125Z,14.73
2022-10-05T18:36:13.531Z,13.82
2022-10-05T18:38:43.342Z,13.65
2022-10-05T18:41:31.625Z,12.32
2022-10-05T18:43:58.050Z,13.45
2022-10-05T18:46:24.570Z,11.50
2022-10-05T18:49:07.077Z,13.48
2022-10-05T18:51:36.254Z,13.48
2022-10-05T18:54:18.449Z,10.52
2022-10-05T18:56:51.615Z,13.18
2022-10-05T18:59:36.621Z,12.75
2022-10-05T19:02:23.082Z,13.07
2022-10-05T19:04:49.557Z,13.65
2022-10-05T19:07:37.079Z,14.23
2022-10-05T19:10:03.544Z,13.77
2022-10-05T19:12:33.874Z,15.43
2022-10-05T19:15:17.087Z,17.85
2022-10-05T19:17:46.428Z,17.70
2022-10-05T19:20:22.168Z,16.17
2022-10-05T19:22:48.598Z,17.63
2022-10-05T19:25:28.710Z,16.75
2022-10-05T19:28:15.300Z,16.08
2022-10-05T19:30:48.508Z,14.65
2022-10-05T19:33:24.147Z,16.08
2022-10-05T19:35:50.911Z,16.65
2022-10-05T19:38:23.427Z,14.38
2022-10-05T19:40:52.965Z,18.02
2022-10-05T19:43:38.017Z,14.63
2022-10-05T19:46:22.822Z,15.80
2022-10-05T19:48:51.530Z,15.57
2022-10-05T19:51:25.358Z,15.80
2022-10-05T19:53:55.949Z,14.43
2022-10-05T19:56:25.203Z,12.75
2022-10-05T19:58:56.403Z,14.80
2022-10-05T20:01:24.680Z,13.38
2022-10-05T20:03:51.840Z,14.63
2022-10-05T20:06:19.190Z,14.05
2022-10-05T20:08:46.744Z,12.20
2022-10-05T20:11:13.242Z,14.52
2022-10-05T20:13:44.455Z,13.77
2022-10-05T20:16:35.652Z,13.85
2022-10-05T20:19:21.973Z,13.15
2022-10-05T20:21:59.843Z,13.25
2022-10-05T20:24:30.286Z,12.70
2022-10-05T20:27:07.130Z,11.48
2022-10-05T20:29:33.684Z,12.35
2022-10-05T20:32:00.437Z,11.85
2022-10-05T20:34:26.976Z,15.30
2022-10-05T20:36:53.482Z,14.75
2022-10-05T20:39:21.299Z,12.07
2022-10-05T20:41:47.757Z,13.02
2022-10-05T20:44:14.429Z,11.95
2022-10-05T20:46:41.720Z,12.93
2022-10-05T20:49:12.609Z,13.15
2022-10-05T20:51:40.116Z,12.35
2022-10-05T20:54:07.280Z,12.15
2022-10-05T20:56:33.843Z,11.55
2022-10-05T20:59:00.374Z,11.98
2022-10-05T21:01:27.694Z,11.27
2022-10-05T21:03:54.441Z,12.88
2022-10-05T21:06:21.144Z,11.70
2022-10-05T21:08:50.807Z,12.73
2022-10-05T21:11:17.344Z,13.40
2022-10-05T21:13:47.087Z,13.30
2022-10-05T21:16:15.560Z,12.68
2022-10-05T21:18:42.752Z,13.35
2022-10-05T21:21:09.254Z,11.60
2022-10-05T21:23:35.799Z,12.35
2022-10-05T21:26:02.342Z,13.07
2022-10-05T21:28:29.093Z,11.13
2022-10-05T21:30:55.805Z,13.45
2022-10-05T21:33:22.242Z,13.13
2022-10-05T21:35:48.763Z,12.63
2022-10-05T21:38:15.227Z,13.68
2022-10-05T21:40:43.386Z,15.82
2022-10-05T21:43:10.561Z,13.68
2022-10-05T21:45:37.377Z,13.60
2022-10-05T21:48:04.731Z,16.27
2022-10-05T21:50:32.371Z,15.43
2022-10-05T21:53:00.138Z,16.33
2022-10-05T21:55:26.677Z,16.10
2022-10-05T21:57:54.875Z,16.95
2022-10-05T22:00:21.380Z,15.93
2022-10-05T22:02:48.355Z,18.60
2022-10-05T22:05:14.905Z,16.50
2022-10-05T22:07:41.369Z,19.55
2022-10-05T22:10:08.091Z,20.25
2022-10-05T22:12:34.669Z,16.85
2022-10-05T22:15:01.284Z,18.63
2022-10-05T22:17:29.525Z,17.60
2022-10-05T22:19:56.736Z,18.65
2022-10-05T22:22:23.241Z,20.25
2022-10-05T22:24:50.109Z,21.70
2022-10-05T22:27:16.879Z,20.02
2022-10-05T22:29:43.389Z,20.65
2022-10-05T22:32:09.911Z,22.17
2022-10-05T22:34:36.399Z,21.25
2022-10-05T22:37:03.582Z,20.83
2022-10-05T22:39:30.021Z,19.45
2022-10-05T22:41:56.657Z,20.33
2022-10-05T22:44:23.152Z,20.70
2022-10-05T22:46:49.757Z,19.95
2022-10-05T22:49:16.205Z,25.52
2022-10-05T22:51:42.672Z,22.38
2022-10-05T22:54:09.152Z,21.70
2022-10-05T22:56:35.645Z,22.23
2022-10-05T22:59:02.064Z,20.25
2022-10-05T23:01:28.645Z,19.10
2022-10-05T23:03:57.193Z,20.45
2022-10-05T23:06:26.545Z,20.42
2022-10-05T23:08:55.992Z,18.63
2022-10-05T23:11:26.336Z,21.50
2022-10-05T23:13:53.330Z,19.38
2022-10-05T23:16:21.956Z,20.63
2022-10-05T23:18:49.217Z,18.77
2022-10-05T23:21:15.651Z,18.05
2022-10-05T23:23:43.684Z,19.45
2022-10-05T23:26:11.186Z,18.88
2022-10-05T23:28:38.662Z,19.67
2022-10-05T23:31:06.292Z,19.98
2022-10-05T23:33:33.281Z,17.92
2022-10-05T23:36:00.925Z,17.95
2022-10-05T23:38:27.818Z,18.83
2022-10-05T23:40:54.645Z,19.55
2022-10-05T23:43:21.386Z,18.30
2022-10-05T23:45:48.231Z,19.10
2022-10-05T23:48:14.894Z,18.45
2022-10-05T23:50:42.213Z,19.25
2022-10-05T23:53:08.721Z,20.52
2022-10-05T23:55:35.126Z,19.55
2022-10-05T23:58:01.597Z,21.08
